PWSweather.com
Personal Weather Stations
Station Observations
ICAMBRID16
ChatterisGB PE16 6AY

ChatterisGB PE16 6AY

Lat: 52.45616, Lon: 0.05771

Elevation: 17

Station Type: Davis Vantage Pro 2

https://www.chatteris.biz

Latest ConditionsUpdated 5:02:46 PM GMT Monday, Jan 21, 2019
Currently Today's Max Today's Min Today's Average
Temperature 39.2°F4.0°C 42.4°F5.8°C 32.7°F0.4°C 37.5°F3.1°C
Dew Point 34.5°F1.4°C 37.8°F3.2°C 30.4°F-0.9°C 34.4°F1.3°C
Winds 4.9 mph SW7.9 kmh SW 6.9 mph -11.1 kmh - - 3.2 mph 5.1 kmh
Wind Gusts 9.0 mph14.5 kmh 15.0 mph24.1 kmh - -
Humidity 83% 93% 78% 89%
Pressure 30.01 in1016.3 mb 30.22 in1023.4 mb 30.01 in1016.3 mb -
Hour Temp Dew Point Humidity Winds Wind Gusts Pressure Precip Precip Rate Daily Precip Total
05:02 PM 39.2°F4.0°C 34.5°F1.4°C 83% 4.9 mph SW7.9 kmh SW 9.0 mph14.5 kmh 30.01 in1016.3 mb 0.00 in0.0 mm 0.00 in0.0 mm 0.00 in0.0 mm
04:32 PM 39.4°F4.1°C 34.7°F1.5°C 83% 4.0 mph SW6.4 kmh SW 10.1 mph16.3 kmh 30.02 in1016.6 mb 0.00 in0.0 mm 0.00 in0.0 mm 0.00 in0.0 mm
04:02 PM 39.6°F4.2°C 34.5°F1.4°C 82% 6.0 mph SSW9.7 kmh SSW 11.0 mph17.7 kmh 30.03 in1016.9 mb 0.00 in0.0 mm 0.00 in0.0 mm 0.00 in0.0 mm
03:32 PM 40.8°F4.9°C 35.1°F1.7°C 80% 4.9 mph SW7.9 kmh SW 11.0 mph17.7 kmh 30.03 in1016.9 mb 0.00 in0.0 mm 0.00 in0.0 mm 0.00 in0.0 mm
03:02 PM 41.5°F5.3°C 35.6°F2.0°C 79% 6.0 mph SW9.7 kmh SW 13.0 mph20.9 kmh 30.05 in1017.6 mb 0.00 in0.0 mm 0.00 in0.0 mm 0.00 in0.0 mm
02:32 PM 42.1°F5.6°C 35.8°F2.1°C 78% 6.0 mph SW9.7 kmh SW 14.1 mph22.7 kmh 30.06 in1017.9 mb 0.00 in0.0 mm 0.00 in0.0 mm 0.00 in0.0 mm
02:02 PM 42.4°F5.8°C 36.1°F2.3°C 78% 6.9 mph SW11.1 kmh SW 15.0 mph24.1 kmh 30.07 in1018.3 mb 0.00 in0.0 mm 0.00 in0.0 mm 0.00 in0.0 mm
01:32 PM 42.4°F5.8°C 36.7°F2.6°C 80% 6.0 mph SW9.7 kmh SW 13.0 mph20.9 kmh 30.09 in1019.0 mb 0.00 in0.0 mm 0.00 in0.0 mm 0.00 in0.0 mm
01:02 PM 42.1°F5.6°C 36.7°F2.6°C 81% 6.0 mph SW9.7 kmh SW 12.1 mph19.5 kmh 30.11 in1019.6 mb 0.00 in0.0 mm 0.00 in0.0 mm 0.00 in0.0 mm
12:32 PM 41.7°F5.4°C 37.2°F2.9°C 84% 6.0 mph SW9.7 kmh SW 13.0 mph20.9 kmh 30.12 in1020.0 mb 0.00 in0.0 mm 0.00 in0.0 mm 0.00 in0.0 mm
12:02 PM 40.8°F4.9°C 37.8°F3.2°C 89% 2.9 mph WSW4.7 kmh WSW 7.0 mph11.3 kmh 30.14 in1020.7 mb 0.00 in0.0 mm 0.00 in0.0 mm 0.00 in0.0 mm
11:32 AM 39.9°F4.4°C 37.2°F2.9°C 90% 2.9 mph SSW4.7 kmh SSW 6.9 mph11.1 kmh 30.15 in1021.0 mb 0.00 in0.0 mm 0.00 in0.0 mm 0.00 in0.0 mm
11:02 AM 39.0°F3.9°C 36.7°F2.6°C 91% 4.0 mph W6.4 kmh W 9.0 mph14.5 kmh 30.17 in1021.7 mb 0.00 in0.0 mm 0.00 in0.0 mm 0.00 in0.0 mm
10:32 AM 38.3°F3.5°C 36.0°F2.2°C 91% 2.9 mph WSW4.7 kmh WSW 7.0 mph11.3 kmh 30.19 in1022.4 mb 0.00 in0.0 mm 0.00 in0.0 mm 0.00 in0.0 mm
10:02 AM 37.0°F2.8°C 34.9°F1.6°C 92% 2.0 mph WSW3.2 kmh WSW 4.0 mph6.4 kmh 30.20 in1022.7 mb 0.00 in0.0 mm 0.00 in0.0 mm 0.00 in0.0 mm
09:32 AM 36.9°F2.7°C 34.7°F1.5°C 92% 2.9 mph W4.7 kmh W 6.0 mph9.7 kmh 30.20 in1022.7 mb 0.00 in0.0 mm 0.00 in0.0 mm 0.00 in0.0 mm
09:02 AM 36.7°F2.6°C 34.9°F1.6°C 93% 2.9 mph 4.7 kmh 4.0 mph6.4 kmh 30.20 in1022.7 mb 0.00 in0.0 mm 0.00 in0.0 mm 0.00 in0.0 mm
08:32 AM 35.8°F2.1°C 34.0°F1.1°C 93% 0.9 mph 1.4 kmh 3.0 mph4.8 kmh 30.20 in1022.7 mb 0.00 in0.0 mm 0.00 in0.0 mm 0.00 in0.0 mm
08:02 AM 35.8°F2.1°C 33.6°F0.9°C 92% 0.9 mph W1.4 kmh W 3.0 mph4.8 kmh 30.20 in1022.7 mb 0.00 in0.0 mm 0.00 in0.0 mm 0.00 in0.0 mm
07:32 AM 36.5°F2.5°C 34.3°F1.3°C 92% Calm Calm 4.0 mph6.4 kmh 30.20 in1022.7 mb 0.00 in0.0 mm 0.00 in0.0 mm 0.00 in0.0 mm
07:02 AM 36.7°F2.6°C 34.5°F1.4°C 92% 2.0 mph WNW3.2 kmh WNW 4.0 mph6.4 kmh 30.20 in1022.7 mb 0.00 in0.0 mm 0.00 in0.0 mm 0.00 in0.0 mm
06:32 AM 36.3°F2.4°C 34.2°F1.2°C 92% 2.9 mph 4.7 kmh 4.0 mph6.4 kmh 30.20 in1022.7 mb 0.00 in0.0 mm 0.00 in0.0 mm 0.00 in0.0 mm
06:02 AM 36.7°F2.6°C 34.5°F1.4°C 92% 2.0 mph NW3.2 kmh NW 4.0 mph6.4 kmh 30.20 in1022.7 mb 0.00 in0.0 mm 0.00 in0.0 mm 0.00 in0.0 mm
05:32 AM 36.1°F2.3°C 34.3°F1.3°C 93% 2.0 mph 3.2 kmh 6.0 mph9.7 kmh 30.20 in1022.7 mb 0.00 in0.0 mm 0.00 in0.0 mm 0.00 in0.0 mm
05:02 AM 35.8°F2.1°C 34.0°F1.1°C 93% 2.9 mph W4.7 kmh W 7.0 mph11.3 kmh 30.20 in1022.7 mb 0.00 in0.0 mm 0.00 in0.0 mm 0.00 in0.0 mm
04:32 AM 35.4°F1.9°C 33.3°F0.7°C 92% 4.0 mph W6.4 kmh W 6.0 mph9.7 kmh 30.20 in1022.7 mb 0.00 in0.0 mm 0.00 in0.0 mm 0.00 in0.0 mm
04:02 AM 35.4°F1.9°C 33.3°F0.7°C 92% 2.0 mph W3.2 kmh W 4.0 mph6.4 kmh 30.20 in1022.7 mb 0.00 in0.0 mm 0.00 in0.0 mm 0.00 in0.0 mm
03:32 AM 35.2°F1.8°C 33.1°F0.6°C 92% 2.9 mph 4.7 kmh 4.0 mph6.4 kmh 30.20 in1022.7 mb 0.00 in0.0 mm 0.00 in0.0 mm 0.00 in0.0 mm
03:02 AM 34.9°F1.6°C 32.5°F0.3°C 91% 2.0 mph W3.2 kmh W 4.0 mph6.4 kmh 30.21 in1023.0 mb 0.00 in0.0 mm 0.00 in0.0 mm 0.00 in0.0 mm
02:32 AM 34.3°F1.3°C 32.0°F0.0°C 91% 2.0 mph W3.2 kmh W 3.0 mph4.8 kmh 30.21 in1023.0 mb 0.00 in0.0 mm 0.00 in0.0 mm 0.00 in0.0 mm
02:02 AM 33.8°F1.0°C 31.5°F-0.3°C 91% 0.9 mph W1.4 kmh W 3.0 mph4.8 kmh 30.21 in1023.0 mb 0.00 in0.0 mm 0.00 in0.0 mm 0.00 in0.0 mm
01:32 AM 34.2°F1.2°C 31.8°F-0.1°C 91% 0.9 mph W1.4 kmh W 3.0 mph4.8 kmh 30.22 in1023.4 mb 0.00 in0.0 mm 0.00 in0.0 mm 0.00 in0.0 mm
01:02 AM 34.0°F1.1°C 31.6°F-0.2°C 91% 2.0 mph 3.2 kmh 6.0 mph9.7 kmh 30.21 in1023.0 mb 0.00 in0.0 mm 0.00 in0.0 mm 0.00 in0.0 mm
12:32 AM 32.7°F0.4°C 30.4°F-0.9°C 91% 2.0 mph WNW3.2 kmh WNW 4.0 mph6.4 kmh 30.21 in1023.0 mb 0.00 in0.0 mm 0.00 in0.0 mm 0.00 in0.0 mm
12:02 AM 32.7°F0.4°C 30.4°F-0.9°C 91% 0.9 mph NW1.4 kmh NW 4.0 mph6.4 kmh 30.20 in1022.7 mb 0.00 in0.0 mm 0.00 in0.0 mm 0.00 in0.0 mm